createdAt,value
2022-08-28T00:00:48.331Z,100
2022-08-28T00:01:58.710Z,100
2022-08-28T00:03:08.563Z,100
2022-08-28T00:05:28.812Z,100
2022-08-28T00:06:37.931Z,100
2022-08-28T00:07:48.049Z,100
2022-08-28T00:08:58.172Z,100
2022-08-28T00:10:08.295Z,100
2022-08-28T00:12:28.528Z,100
2022-08-28T00:13:38.639Z,100
2022-08-28T00:14:48.760Z,100
2022-08-28T00:15:58.881Z,100
2022-08-28T00:17:08.994Z,100
2022-08-28T00:18:19.119Z,100
2022-08-28T00:19:29.227Z,100
2022-08-28T00:20:39.352Z,100
2022-08-28T00:21:48.473Z,100
2022-08-28T00:22:58.600Z,100
2022-08-28T00:24:08.727Z,100
2022-08-28T00:25:18.832Z,100
2022-08-28T00:26:28.954Z,100
2022-08-28T00:27:39.069Z,100
2022-08-28T00:28:49.181Z,100
2022-08-28T00:29:59.303Z,100
2022-08-28T00:31:09.417Z,100
2022-08-28T00:32:19.538Z,100
2022-08-28T00:33:29.656Z,100
2022-08-28T00:34:39.784Z,100
2022-08-28T00:35:49.886Z,100
2022-08-28T00:36:59.032Z,100
2022-08-28T00:38:09.135Z,100
2022-08-28T00:40:29.370Z,100
2022-08-28T00:41:39.492Z,100
2022-08-28T00:42:49.617Z,100
2022-08-28T00:43:59.999Z,100
2022-08-28T00:45:09.842Z,100
2022-08-28T00:46:19.963Z,100
2022-08-28T00:47:30.082Z,100
2022-08-28T00:48:40.195Z,100
2022-08-28T00:49:50.324Z,100
2022-08-28T00:51:00.442Z,100
2022-08-28T00:52:09.576Z,100
2022-08-28T00:53:19.684Z,100
2022-08-28T00:54:29.804Z,100
2022-08-28T00:55:39.929Z,100
2022-08-28T00:56:50.043Z,100
2022-08-28T00:58:00.158Z,100
2022-08-28T00:59:10.531Z,100
2022-08-28T01:00:20.388Z,100
2022-08-28T01:01:30.506Z,100
2022-08-28T01:02:40.622Z,100
2022-08-28T01:03:50.748Z,100
2022-08-28T01:05:00.858Z,100
2022-08-28T01:06:10.982Z,100
2022-08-28T01:08:30.230Z,100
2022-08-28T01:09:40.354Z,100
2022-08-28T01:10:50.465Z,100
2022-08-28T01:12:00.592Z,100
2022-08-28T01:13:10.701Z,100
2022-08-28T01:14:20.825Z,100
2022-08-28T01:15:30.934Z,100
2022-08-28T01:16:41.054Z,100
2022-08-28T01:17:51.182Z,100
2022-08-28T01:19:01.292Z,100
2022-08-28T01:20:11.686Z,100
2022-08-28T01:21:21.524Z,100
2022-08-28T01:22:30.657Z,100
2022-08-28T01:23:40.779Z,100
2022-08-28T01:24:50.886Z,100
2022-08-28T01:26:01.014Z,100
2022-08-28T01:27:11.125Z,100
2022-08-28T01:29:31.624Z,100
2022-08-28T01:30:41.784Z,100
2022-08-28T01:31:51.585Z,100
2022-08-28T01:33:01.717Z,100
2022-08-28T01:34:11.825Z,100
2022-08-28T01:35:21.933Z,100
2022-08-28T01:36:32.056Z,100
2022-08-28T01:37:41.460Z,100
2022-08-28T01:38:51.318Z,100
2022-08-28T01:40:01.426Z,100
2022-08-28T01:41:11.552Z,100
2022-08-28T01:42:21.661Z,100
2022-08-28T01:43:31.784Z,100
2022-08-28T01:44:41.906Z,100
2022-08-28T01:45:52.013Z,100
2022-08-28T01:47:02.134Z,100
2022-08-28T01:48:12.253Z,100
2022-08-28T01:49:22.633Z,100
2022-08-28T01:50:32.487Z,100
2022-08-28T01:51:42.600Z,100
2022-08-28T01:52:51.740Z,100
2022-08-28T01:54:01.848Z,100
2022-08-28T01:55:11.973Z,100
2022-08-28T01:56:22.358Z,100
2022-08-28T01:57:32.209Z,100
2022-08-28T01:58:41.346Z,100
2022-08-28T01:59:51.476Z,100
2022-08-28T02:01:01.585Z,100
2022-08-28T02:02:11.970Z,100
2022-08-28T02:03:21.817Z,100
2022-08-28T02:04:32.206Z,100
2022-08-28T02:05:42.316Z,100
2022-08-28T02:06:52.166Z,100
2022-08-28T02:08:02.552Z,100
2022-08-28T02:09:12.400Z,100
2022-08-28T02:10:22.530Z,100
2022-08-28T02:11:32.643Z,100
2022-08-28T02:12:42.750Z,100
2022-08-28T02:13:51.903Z,100
2022-08-28T02:15:02.010Z,100
2022-08-28T02:16:12.134Z,100
2022-08-28T02:18:32.364Z,100
2022-08-28T02:19:42.491Z,100
2022-08-28T02:20:52.595Z,100
2022-08-28T02:22:02.725Z,100
2022-08-28T02:23:12.830Z,100
2022-08-28T02:25:33.335Z,100
2022-08-28T02:26:43.454Z,100
2022-08-28T02:27:53.302Z,100
2022-08-28T02:29:02.443Z,100
2022-08-28T02:30:12.550Z,100
2022-08-28T02:32:32.788Z,100
2022-08-28T02:33:41.943Z,100
2022-08-28T02:34:51.072Z,100
2022-08-28T02:36:01.454Z,100
2022-08-28T02:37:11.304Z,100
2022-08-28T02:38:21.412Z,100
2022-08-28T02:39:31.538Z,100
2022-08-28T02:40:41.664Z,100
2022-08-28T02:41:51.771Z,100
2022-08-28T02:43:01.896Z,100
2022-08-28T02:44:12.005Z,100
2022-08-28T02:45:22.126Z,100
2022-08-28T02:46:31.281Z,100
2022-08-28T02:47:40.395Z,100
2022-08-28T02:48:50.525Z,100
2022-08-28T02:50:00.649Z,100
2022-08-28T02:51:10.758Z,100
2022-08-28T02:52:20.867Z,100
2022-08-28T02:53:30.998Z,100
2022-08-28T02:54:41.107Z,100
2022-08-28T02:55:51.233Z,100
2022-08-28T02:57:01.338Z,100
2022-08-28T02:58:11.463Z,100
2022-08-28T03:00:31.691Z,100
2022-08-28T03:01:41.819Z,100
2022-08-28T03:02:50.946Z,100
2022-08-28T03:04:01.068Z,100
2022-08-28T03:05:11.450Z,100
2022-08-28T03:06:21.294Z,100
2022-08-28T03:07:31.430Z,100
2022-08-28T03:08:41.536Z,100
2022-08-28T03:09:51.658Z,100
2022-08-28T03:11:01.775Z,100
2022-08-28T03:12:11.901Z,100
2022-08-28T03:14:32.129Z,100
2022-08-28T03:15:42.235Z,100
2022-08-28T03:16:52.363Z,100
2022-08-28T03:18:01.495Z,100
2022-08-28T03:19:11.877Z,100
2022-08-28T03:20:21.729Z,100
2022-08-28T03:21:31.846Z,100
2022-08-28T03:22:41.968Z,100
2022-08-28T03:23:52.348Z,100
2022-08-28T03:25:02.192Z,100
2022-08-28T03:26:12.320Z,100
2022-08-28T03:27:22.443Z,100
2022-08-28T03:28:32.553Z,100
2022-08-28T03:30:53.055Z,100
2022-08-28T03:32:02.915Z,100
2022-08-28T03:33:12.034Z,100
2022-08-28T03:35:32.270Z,100
2022-08-28T03:36:41.425Z,100
2022-08-28T03:37:50.561Z,100
2022-08-28T03:39:00.670Z,100
2022-08-28T03:40:10.800Z,100
2022-08-28T03:42:31.036Z,100
2022-08-28T03:43:41.149Z,100
2022-08-28T03:44:51.252Z,100
2022-08-28T03:46:01.380Z,100
2022-08-28T03:47:11.504Z,100
2022-08-28T03:49:31.995Z,100
2022-08-28T03:50:41.847Z,100
2022-08-28T03:51:51.004Z,100
2022-08-28T03:53:00.390Z,100
2022-08-28T03:54:10.241Z,100
2022-08-28T03:55:20.363Z,100
2022-08-28T03:56:30.492Z,100
2022-08-28T03:57:40.599Z,100
2022-08-28T03:58:50.984Z,100
2022-08-28T04:00:00.834Z,100
2022-08-28T04:01:11.217Z,100
2022-08-28T04:02:21.075Z,100
2022-08-28T04:03:31.183Z,100
2022-08-28T04:04:40.340Z,100
2022-08-28T04:05:49.469Z,100
2022-08-28T04:06:59.588Z,100
2022-08-28T04:08:09.705Z,100
2022-08-28T04:10:29.930Z,100
2022-08-28T04:11:40.061Z,100
2022-08-28T04:12:50.163Z,100
2022-08-28T04:14:00.290Z,100
2022-08-28T04:15:10.399Z,100
2022-08-28T04:16:20.527Z,100
2022-08-28T04:17:30.632Z,100
2022-08-28T04:18:40.754Z,100
2022-08-28T04:19:50.872Z,100
2022-08-28T04:21:00.276Z,100
2022-08-28T04:22:10.127Z,100
2022-08-28T04:23:20.506Z,100
2022-08-28T04:24:30.361Z,100
2022-08-28T04:25:40.469Z,100
2022-08-28T04:26:50.853Z,100
2022-08-28T04:28:00.706Z,100
2022-08-28T04:29:10.831Z,100
2022-08-28T04:30:19.966Z,100
2022-08-28T04:31:29.108Z,100
2022-08-28T04:32:39.493Z,100
2022-08-28T04:33:49.608Z,100
2022-08-28T04:34:59.452Z,100
2022-08-28T04:36:09.581Z,100
2022-08-28T04:37:19.962Z,100
2022-08-28T04:38:30.071Z,100
2022-08-28T04:39:39.921Z,100
2022-08-28T04:40:50.052Z,100
2022-08-28T04:42:00.162Z,100
2022-08-28T04:43:10.278Z,100
2022-08-28T04:45:30.527Z,100
2022-08-28T04:46:39.650Z,100
2022-08-28T04:47:49.765Z,100
2022-08-28T04:49:00.144Z,100
2022-08-28T04:50:10.262Z,100
2022-08-28T04:51:20.114Z,100
2022-08-28T04:52:30.243Z,100
2022-08-28T04:53:40.350Z,100
2022-08-28T04:54:50.473Z,100
2022-08-28T04:56:00.597Z,100
2022-08-28T04:57:10.707Z,100
2022-08-28T04:58:20.822Z,100
2022-08-28T04:59:30.947Z,100
2022-08-28T05:00:41.054Z,100
2022-08-28T05:01:50.191Z,100
2022-08-28T05:03:00.310Z,100
2022-08-28T05:04:10.424Z,100
2022-08-28T05:05:20.551Z,100
2022-08-28T05:06:30.659Z,99.9
2022-08-28T05:07:40.782Z,99.6
2022-08-28T05:08:50.890Z,99.4
2022-08-28T05:10:01.019Z,99.4
2022-08-28T05:11:11.138Z,99.3
2022-08-28T05:12:21.244Z,99.2
2022-08-28T05:13:31.371Z,99.1
2022-08-28T05:14:41.479Z,99
2022-08-28T05:15:51.601Z,99.1
2022-08-28T05:17:00.742Z,98.8
2022-08-28T05:18:10.853Z,98.9
2022-08-28T05:20:31.086Z,99
2022-08-28T05:21:41.477Z,98.5
2022-08-28T05:22:51.590Z,98.5
2022-08-28T05:24:01.444Z,98.2
2022-08-28T05:25:11.829Z,98.5
2022-08-28T05:26:21.675Z,98.8
2022-08-28T05:27:31.800Z,98.7
2022-08-28T05:28:41.909Z,98.4
2022-08-28T05:29:52.030Z,98.4
2022-08-28T05:31:02.434Z,98.5
2022-08-28T05:32:11.277Z,98.6
2022-08-28T05:33:21.405Z,98.7
2022-08-28T05:34:31.513Z,98
2022-08-28T05:35:41.635Z,98.2
2022-08-28T05:36:51.760Z,98.4
2022-08-28T05:38:01.872Z,98.1
2022-08-28T05:39:11.997Z,98
2022-08-28T05:41:32.225Z,97.9
2022-08-28T05:42:42.352Z,97.6
2022-08-28T05:43:52.457Z,97.9
2022-08-28T05:45:02.839Z,97.8
2022-08-28T05:46:12.696Z,97.9
2022-08-28T05:47:21.838Z,97.9
2022-08-28T05:48:32.207Z,98
2022-08-28T05:49:42.069Z,98.2
2022-08-28T05:50:52.446Z,98.1
2022-08-28T05:52:02.299Z,98
2022-08-28T05:53:11.436Z,97.3
2022-08-28T05:54:21.000Z,97.9
2022-08-28T05:55:31.667Z,97.5
2022-08-28T05:56:41.790Z,98.2
2022-08-28T05:57:51.920Z,98.2
2022-08-28T05:59:02.027Z,98.3
2022-08-28T06:00:12.146Z,97.1
2022-08-28T06:01:22.526Z,97.2
2022-08-28T06:02:32.372Z,97.3
2022-08-28T06:03:42.500Z,97.4
2022-08-28T06:04:52.608Z,97.3
2022-08-28T06:06:02.731Z,97.4
2022-08-28T06:07:12.859Z,97.2
2022-08-28T06:08:21.989Z,96.4
2022-08-28T06:09:32.103Z,96.8
2022-08-28T06:10:42.225Z,96.6
2022-08-28T06:11:52.331Z,96.5
2022-08-28T06:13:02.452Z,95.8
2022-08-28T06:14:12.832Z,96.2
2022-08-28T06:15:22.687Z,95.8
2022-08-28T06:16:33.068Z,95.8
2022-08-28T06:17:42.917Z,95.7
2022-08-28T06:18:53.313Z,95.5
2022-08-28T06:20:03.154Z,95
2022-08-28T06:21:13.536Z,95.3
2022-08-28T06:22:23.397Z,95.2
2022-08-28T06:23:32.524Z,95.5
2022-08-28T06:24:42.643Z,94.8
2022-08-28T06:25:53.027Z,96
2022-08-28T06:27:02.876Z,96
2022-08-28T06:28:13.265Z,95.7
2022-08-28T06:30:33.240Z,95.4
2022-08-28T06:31:43.363Z,95.7
2022-08-28T06:32:53.470Z,95.1
2022-08-28T06:34:03.595Z,94.6
2022-08-28T06:35:13.710Z,94.2
2022-08-28T06:37:33.946Z,92.8
2022-08-28T06:38:43.088Z,92.8
2022-08-28T06:39:53.191Z,92
2022-08-28T06:41:03.310Z,91.5
2022-08-28T06:42:13.438Z,89.7
2022-08-28T06:43:23.560Z,89.5
2022-08-28T06:44:33.666Z,89.8
2022-08-28T06:45:43.790Z,89.2
2022-08-28T06:46:53.913Z,88.5
2022-08-28T06:48:04.020Z,88.7
2022-08-28T06:49:14.138Z,88.2
2022-08-28T06:51:34.369Z,88.3
2022-08-28T06:52:43.510Z,88.3
2022-08-28T06:53:52.644Z,89.3
2022-08-28T06:55:03.029Z,89.9
2022-08-28T06:56:12.887Z,90.4
2022-08-28T06:58:33.119Z,90.3
2022-08-28T06:59:43.231Z,90.7
2022-08-28T07:00:53.618Z,90.4
2022-08-28T07:02:03.466Z,90.5
2022-08-28T07:03:13.594Z,89.5
2022-08-28T07:04:23.703Z,89.6
2022-08-28T07:05:34.085Z,88.3
2022-08-28T07:06:43.941Z,88.3
2022-08-28T07:07:54.322Z,88
2022-08-28T07:09:03.204Z,88.3
2022-08-28T07:10:13.325Z,88.3
2022-08-28T07:11:23.439Z,88.9
2022-08-28T07:12:33.548Z,88.9
2022-08-28T07:13:43.669Z,89.4
2022-08-28T07:14:53.781Z,89.3
2022-08-28T07:16:03.902Z,89.1
2022-08-28T07:17:14.015Z,89
2022-08-28T07:18:23.431Z,89.5
2022-08-28T07:19:32.561Z,89.6
2022-08-28T07:20:42.412Z,89.8
2022-08-28T07:21:52.533Z,89.1
2022-08-28T07:23:02.648Z,88.1
2022-08-28T07:24:12.773Z,88.7
2022-08-28T07:25:22.898Z,88
2022-08-28T07:27:43.392Z,87.9
2022-08-28T07:28:53.237Z,87.8
2022-08-28T07:30:03.624Z,87.9
2022-08-28T07:31:13.472Z,89.2
2022-08-28T07:32:23.591Z,88.2
2022-08-28T07:33:33.717Z,89.3
2022-08-28T07:34:42.857Z,89.4
2022-08-28T07:35:52.962Z,88.2
2022-08-28T07:37:03.083Z,86
2022-08-28T07:38:13.193Z,85.8
2022-08-28T07:39:23.327Z,85.3
2022-08-28T07:40:33.436Z,84.3
2022-08-28T07:42:53.667Z,82.1
2022-08-28T07:44:03.788Z,82.1
2022-08-28T07:45:13.909Z,82.5
2022-08-28T07:47:34.134Z,80.3
2022-08-28T07:48:43.282Z,79.7
2022-08-28T07:49:52.430Z,77.1
2022-08-28T07:51:02.539Z,78.9
2022-08-28T07:52:12.653Z,77.8
2022-08-28T07:53:22.776Z,78.7
2022-08-28T07:54:32.883Z,80.2
2022-08-28T07:55:43.007Z,81
2022-08-28T07:56:53.126Z,82.2
2022-08-28T07:58:03.246Z,82.9
2022-08-28T07:59:13.354Z,82.5
2022-08-28T08:00:23.483Z,83.7
2022-08-28T08:01:32.614Z,83.2
2022-08-28T08:02:41.755Z,82.4
2022-08-28T08:03:51.872Z,83
2022-08-28T08:05:01.992Z,82.1
2022-08-28T08:06:12.370Z,81.7
2022-08-28T08:07:22.235Z,80.3
2022-08-28T08:08:32.611Z,79.8
2022-08-28T08:09:42.468Z,78.7
2022-08-28T08:10:52.576Z,80.3
2022-08-28T08:12:03.038Z,81.3
2022-08-28T08:13:12.811Z,81.1
2022-08-28T08:14:22.932Z,82
2022-08-28T08:15:33.051Z,82.7
2022-08-28T08:16:43.167Z,80.5
2022-08-28T08:17:52.289Z,80.3
2022-08-28T08:19:02.410Z,80.8
2022-08-28T08:20:12.531Z,82
2022-08-28T08:22:32.762Z,82
2022-08-28T08:23:42.889Z,81.9
2022-08-28T08:24:52.993Z,81.6
2022-08-28T08:26:03.120Z,79.9
2022-08-28T08:27:13.231Z,79
2022-08-28T08:29:33.482Z,78.4
2022-08-28T08:30:43.590Z,77.7
2022-08-28T08:31:53.717Z,78.5
2022-08-28T08:33:02.834Z,77.6
2022-08-28T08:34:12.961Z,78.1
2022-08-28T08:35:23.069Z,78.7
2022-08-28T08:36:33.201Z,80.4
2022-08-28T08:37:43.308Z,79.4
2022-08-28T08:38:53.691Z,79.9
2022-08-28T08:40:03.541Z,80.3
2022-08-28T08:41:13.667Z,79.7
2022-08-28T08:42:23.788Z,79.5
2022-08-28T08:43:33.895Z,79.6
2022-08-28T08:44:44.024Z,81.3
2022-08-28T08:45:54.132Z,80.4
2022-08-28T08:47:04.255Z,81.6
2022-08-28T08:48:13.645Z,80.7
2022-08-28T08:50:33.877Z,82.4
2022-08-28T08:51:43.736Z,82.6
2022-08-28T08:52:53.864Z,83.2
2022-08-28T08:54:03.969Z,82.5
2022-08-28T08:55:14.094Z,83.6
2022-08-28T08:56:24.214Z,82
2022-08-28T08:57:34.336Z,83
2022-08-28T08:58:44.435Z,83.1
2022-08-28T08:59:54.565Z,82.5
2022-08-28T09:01:04.684Z,83.1
2022-08-28T09:02:15.059Z,82.5
2022-08-28T09:04:34.047Z,81.3
2022-08-28T09:05:44.157Z,81.3
2022-08-28T09:06:54.284Z,81.3
2022-08-28T09:08:04.408Z,81.7
2022-08-28T09:09:14.518Z,81.7
2022-08-28T09:10:24.644Z,81.7
2022-08-28T09:11:35.015Z,81.8
2022-08-28T09:12:44.873Z,81.5
2022-08-28T09:13:55.251Z,82
2022-08-28T09:15:05.108Z,80.3
2022-08-28T09:16:15.490Z,80.5
2022-08-28T09:17:25.351Z,81
2022-08-28T09:18:34.468Z,81.1
2022-08-28T09:19:44.600Z,80.5
2022-08-28T09:20:54.705Z,81.6
2022-08-28T09:22:04.836Z,82.8
2022-08-28T09:23:14.951Z,82.6
2022-08-28T09:24:25.059Z,82.6
2022-08-28T09:25:35.178Z,83.7
2022-08-28T09:26:45.305Z,83
2022-08-28T09:27:55.413Z,82
2022-08-28T09:29:05.525Z,80.4
2022-08-28T09:30:15.650Z,80.8
2022-08-28T09:32:35.882Z,81.9
2022-08-28T09:33:45.024Z,80.6
2022-08-28T09:34:55.149Z,79.2
2022-08-28T09:36:05.248Z,78.7
2022-08-28T09:37:15.374Z,78.5
2022-08-28T09:38:25.493Z,77.8
2022-08-28T09:39:35.600Z,78.8
2022-08-28T09:40:45.717Z,77.1
2022-08-28T09:41:55.838Z,78.1
2022-08-28T09:43:05.965Z,75.9
2022-08-28T09:44:16.071Z,76.3
2022-08-28T09:46:36.304Z,74.5
2022-08-28T09:47:45.441Z,75
2022-08-28T09:48:55.567Z,76
2022-08-28T09:50:05.690Z,75.8
2022-08-28T09:51:15.797Z,76.2
2022-08-28T09:52:25.930Z,76.1
2022-08-28T09:53:36.030Z,76.3
2022-08-28T09:54:46.158Z,76.8
2022-08-28T09:55:56.268Z,77.5
2022-08-28T09:58:16.501Z,77.9
2022-08-28T10:00:36.736Z,77.8
2022-08-28T10:01:45.892Z,77.8
2022-08-28T10:02:55.027Z,75.8
2022-08-28T10:04:05.132Z,78
2022-08-28T10:05:15.245Z,77.2
2022-08-28T10:07:35.480Z,77.5
2022-08-28T10:08:45.606Z,75.3
2022-08-28T10:09:55.730Z,75.6
2022-08-28T10:11:05.835Z,76.5
2022-08-28T10:12:15.966Z,76.8
2022-08-28T10:14:36.185Z,75.7
2022-08-28T10:15:46.307Z,76.2
2022-08-28T10:16:55.457Z,74.5
2022-08-28T10:18:04.592Z,76
2022-08-28T10:19:14.703Z,74.6
2022-08-28T10:20:24.829Z,75.3
2022-08-28T10:21:34.933Z,75.5
2022-08-28T10:22:45.049Z,76
2022-08-28T10:23:55.175Z,74.4
2022-08-28T10:25:05.551Z,75
2022-08-28T10:26:15.409Z,74.4
2022-08-28T10:27:25.536Z,73.5
2022-08-28T10:28:35.654Z,75.1
2022-08-28T10:29:44.786Z,74.7
2022-08-28T10:30:53.925Z,71.7
2022-08-28T10:32:04.030Z,74.4
2022-08-28T10:33:14.156Z,73.4
2022-08-28T10:35:34.386Z,73.3
2022-08-28T10:36:44.510Z,72.7
2022-08-28T10:37:54.616Z,73.5
2022-08-28T10:39:04.746Z,74
2022-08-28T10:40:14.853Z,74.4
2022-08-28T10:42:35.099Z,74
2022-08-28T10:43:45.206Z,72.9
2022-08-28T10:46:04.472Z,72.2
2022-08-28T10:47:13.628Z,72.9
2022-08-28T10:49:32.878Z,70.9
2022-08-28T10:50:42.988Z,71.8
2022-08-28T10:51:53.105Z,71.9
2022-08-28T10:53:03.490Z,70.7
2022-08-28T10:54:13.599Z,71.1
2022-08-28T10:55:23.459Z,70.8
2022-08-28T10:56:33.836Z,69.7
2022-08-28T10:57:43.691Z,70.6
2022-08-28T10:58:53.800Z,71.8
2022-08-28T11:00:03.930Z,72.2
2022-08-28T11:01:13.067Z,71.1
2022-08-28T11:03:32.326Z,71.9
2022-08-28T11:04:42.446Z,73.2
2022-08-28T11:05:52.547Z,69.2
2022-08-28T11:07:02.935Z,69.8
2022-08-28T11:08:12.798Z,68.2
2022-08-28T11:09:22.899Z,68.8
2022-08-28T11:10:33.023Z,67.8
2022-08-28T11:11:43.143Z,67.7
2022-08-28T11:12:53.520Z,66.9
2022-08-28T11:14:03.378Z,67.5
2022-08-28T11:15:12.775Z,70
2022-08-28T11:17:31.775Z,66.7
2022-08-28T11:18:41.896Z,66.2
2022-08-28T11:19:52.005Z,66.1
2022-08-28T11:21:02.136Z,66.3
2022-08-28T11:22:12.246Z,64.6
2022-08-28T11:23:22.616Z,65.4
2022-08-28T11:24:32.480Z,66
2022-08-28T11:25:42.587Z,65.4
2022-08-28T11:26:52.714Z,64.7
2022-08-28T11:28:02.834Z,63.2
2022-08-28T11:29:12.938Z,65.4
2022-08-28T11:30:23.068Z,62.4
2022-08-28T11:31:32.189Z,63.9
2022-08-28T11:32:42.315Z,66.2
2022-08-28T11:33:52.425Z,64.1
2022-08-28T11:35:02.549Z,65.6
2022-08-28T11:36:12.671Z,64.1
2022-08-28T11:38:33.157Z,64.4
2022-08-28T11:39:43.020Z,65.3
2022-08-28T11:40:53.394Z,67
2022-08-28T11:42:03.248Z,64.6
2022-08-28T11:43:13.378Z,65.5
2022-08-28T11:44:23.492Z,64.4
2022-08-28T11:45:33.858Z,62.7
2022-08-28T11:46:42.725Z,63.8
2022-08-28T11:47:52.844Z,66
2022-08-28T11:49:02.968Z,64.9
2022-08-28T11:50:13.094Z,65.8
2022-08-28T11:51:23.204Z,64.6
2022-08-28T11:52:33.578Z,64.6
2022-08-28T11:53:43.435Z,64.8
2022-08-28T11:54:53.562Z,63.4
2022-08-28T11:56:03.671Z,63.5
2022-08-28T11:57:13.791Z,65.3
2022-08-28T11:58:23.915Z,67.4
2022-08-28T11:59:34.019Z,67
2022-08-28T12:00:44.148Z,65.3
2022-08-28T12:01:53.536Z,64.8
2022-08-28T12:03:03.389Z,64.7
2022-08-28T12:04:13.789Z,63.8
2022-08-28T12:05:23.639Z,62.9
2022-08-28T12:06:33.738Z,63
2022-08-28T12:07:43.871Z,60.8
2022-08-28T12:08:53.982Z,60.1
2022-08-28T12:10:04.089Z,60.5
2022-08-28T12:11:14.218Z,63.2
2022-08-28T12:12:24.329Z,62.8
2022-08-28T12:13:34.441Z,59.4
2022-08-28T12:14:44.561Z,60.2
2022-08-28T12:15:54.686Z,59
2022-08-28T12:17:03.822Z,61.2
2022-08-28T12:18:13.943Z,60
2022-08-28T12:19:24.049Z,62.2
2022-08-28T12:20:34.175Z,60.2
2022-08-28T12:21:44.282Z,62.5
2022-08-28T12:22:54.412Z,61.9
2022-08-28T12:24:04.517Z,60.2
2022-08-28T12:25:14.642Z,60.7
2022-08-28T12:26:24.752Z,61.7
2022-08-28T12:27:35.126Z,60.6
2022-08-28T12:28:44.988Z,61.4
2022-08-28T12:29:55.112Z,62.6
2022-08-28T12:31:05.489Z,61.3
2022-08-28T12:32:15.348Z,60.2
2022-08-28T12:33:24.467Z,61.3
2022-08-28T12:34:34.596Z,61.4
2022-08-28T12:35:44.703Z,58.3
2022-08-28T12:36:54.824Z,61
2022-08-28T12:39:15.067Z,61.1
2022-08-28T12:41:35.301Z,62.7
2022-08-28T12:42:45.407Z,63.8
2022-08-28T12:43:55.785Z,60.8
2022-08-28T12:45:05.648Z,62.2
2022-08-28T12:46:15.776Z,62.8
2022-08-28T12:47:25.883Z,61.9
2022-08-28T12:48:35.273Z,59.8
2022-08-28T12:49:45.124Z,59.7
2022-08-28T12:50:55.250Z,61.2
2022-08-28T12:52:05.365Z,61.4
2022-08-28T12:53:15.494Z,60.7
2022-08-28T12:55:35.726Z,62.5
2022-08-28T12:56:44.866Z,62.1
2022-08-28T12:57:54.000Z,59.1
2022-08-28T12:59:04.112Z,58.9
2022-08-28T13:00:14.236Z,59.3
2022-08-28T13:02:34.462Z,59.8
2022-08-28T13:03:44.588Z,58
2022-08-28T13:04:54.696Z,60.4
2022-08-28T13:06:04.823Z,60
2022-08-28T13:07:14.946Z,58.9
2022-08-28T13:09:35.431Z,60.9
2022-08-28T13:10:45.293Z,60.2
2022-08-28T13:11:54.437Z,62.1
2022-08-28T13:13:03.556Z,63
2022-08-28T13:14:13.678Z,60.5
2022-08-28T13:15:23.802Z,58.2
2022-08-28T13:16:33.925Z,59.3
2022-08-28T13:17:44.038Z,59.4
2022-08-28T13:18:54.145Z,58.8
2022-08-28T13:20:04.270Z,58.4
2022-08-28T13:21:14.380Z,59.7
2022-08-28T13:23:34.616Z,58.5
2022-08-28T13:24:44.741Z,57.8
2022-08-28T13:25:54.864Z,59
2022-08-28T13:27:04.980Z,57
2022-08-28T13:28:14.116Z,58.5
2022-08-28T13:30:34.341Z,58.3
2022-08-28T13:31:44.464Z,58.3
2022-08-28T13:32:54.833Z,56.3
2022-08-28T13:34:04.689Z,56.1
2022-08-28T13:35:15.062Z,56.9
2022-08-28T13:37:35.046Z,57.7
2022-08-28T13:38:45.159Z,58.8
2022-08-28T13:39:55.537Z,57
2022-08-28T13:42:15.505Z,58.5
2022-08-28T13:43:24.657Z,58.5
2022-08-28T13:44:34.771Z,59.3
2022-08-28T13:45:44.882Z,59.7
2022-08-28T13:46:54.997Z,59.5
2022-08-28T13:48:05.120Z,58.1
2022-08-28T13:49:15.248Z,57.7
2022-08-28T13:50:25.354Z,59.8
2022-08-28T13:51:35.465Z,60
2022-08-28T13:52:45.594Z,58.1
2022-08-28T13:53:55.699Z,59.1
2022-08-28T13:55:06.082Z,58.3
2022-08-28T13:56:15.948Z,58.5
2022-08-28T13:57:26.054Z,58.1
2022-08-28T13:58:35.189Z,59.3
2022-08-28T13:59:45.314Z,57.8
2022-08-28T14:00:55.434Z,55.8
2022-08-28T14:02:04.564Z,56.3
2022-08-28T14:03:13.716Z,57.1
2022-08-28T14:04:23.821Z,55
2022-08-28T14:05:33.949Z,56.7
2022-08-28T14:06:44.055Z,57.6
2022-08-28T14:07:54.435Z,57.9
2022-08-28T14:09:04.290Z,57.7
2022-08-28T14:10:14.665Z,56.8
2022-08-28T14:12:34.643Z,57.6
2022-08-28T14:13:44.770Z,58.4
2022-08-28T14:14:54.874Z,55.1
2022-08-28T14:16:05.002Z,55.6
2022-08-28T14:17:15.105Z,56.3
2022-08-28T14:19:34.622Z,55.1
2022-08-28T14:20:43.499Z,56.1
2022-08-28T14:21:52.901Z,55.2
2022-08-28T14:23:02.750Z,54.6
2022-08-28T14:24:13.132Z,53.3
2022-08-28T14:25:22.985Z,50.9
2022-08-28T14:26:33.112Z,49.3
2022-08-28T14:27:43.222Z,48.9
2022-08-28T14:28:53.342Z,49.8
2022-08-28T14:30:03.719Z,50.8
2022-08-28T14:31:13.566Z,49.3
2022-08-28T14:33:33.809Z,47.5
2022-08-28T14:34:43.933Z,46.4
2022-08-28T14:35:54.309Z,45.9
2022-08-28T14:37:03.174Z,45.3
2022-08-28T14:38:13.300Z,44.5
2022-08-28T14:40:33.539Z,45.1
2022-08-28T14:41:43.639Z,44.6
2022-08-28T14:42:53.768Z,44.4
2022-08-28T14:44:03.873Z,44.5
2022-08-28T14:45:13.998Z,43.8
2022-08-28T14:47:34.240Z,43.3
2022-08-28T14:48:44.361Z,42.7
2022-08-28T14:49:54.475Z,44.3
2022-08-28T14:51:04.582Z,42.9
2022-08-28T14:52:13.721Z,41.8
2022-08-28T14:53:23.833Z,43.7
2022-08-28T14:54:33.948Z,42.5
2022-08-28T14:55:44.075Z,43.7
2022-08-28T14:56:54.443Z,42.2
2022-08-28T14:58:04.316Z,43.9
2022-08-28T14:59:14.421Z,47.7
2022-08-28T15:00:24.543Z,46.3
2022-08-28T15:01:34.660Z,45.3
2022-08-28T15:02:44.765Z,44.1
2022-08-28T15:03:54.891Z,42.6
2022-08-28T15:05:04.030Z,41.8
2022-08-28T15:06:13.169Z,40.3
2022-08-28T15:07:23.297Z,41
2022-08-28T15:08:33.397Z,42.2
2022-08-28T15:09:43.522Z,41.9
2022-08-28T15:10:53.900Z,41.4
2022-08-28T15:12:04.012Z,43
2022-08-28T15:13:13.885Z,42.1
2022-08-28T15:15:34.368Z,41.6
2022-08-28T15:16:44.218Z,41.8
2022-08-28T15:17:54.342Z,42.5
2022-08-28T15:19:04.470Z,40.8
2022-08-28T15:20:14.837Z,41.1
2022-08-28T15:21:23.724Z,41.7
2022-08-28T15:22:33.824Z,41.4
2022-08-28T15:23:43.951Z,40.5
2022-08-28T15:24:54.071Z,39.7
2022-08-28T15:26:04.180Z,39.8
2022-08-28T15:27:14.296Z,41.1
2022-08-28T15:28:24.419Z,41.9
2022-08-28T15:29:34.803Z,42.5
2022-08-28T15:30:43.683Z,40.3
2022-08-28T15:31:52.820Z,40.4
2022-08-28T15:33:02.936Z,40.6
2022-08-28T15:34:13.312Z,39.9
2022-08-28T15:36:33.283Z,42.6
2022-08-28T15:37:43.407Z,41.3
2022-08-28T15:38:53.783Z,41.6
2022-08-28T15:40:03.899Z,38.9
2022-08-28T15:41:14.020Z,38.7
2022-08-28T15:42:23.875Z,39.5
2022-08-28T15:43:33.991Z,40
2022-08-28T15:44:44.118Z,41.1
2022-08-28T15:45:54.229Z,40.8
2022-08-28T15:47:03.361Z,39.9
2022-08-28T15:48:13.486Z,40.5
2022-08-28T15:49:23.593Z,41.9
2022-08-28T15:50:33.969Z,40.7
2022-08-28T15:51:43.827Z,40.3
2022-08-28T15:52:53.945Z,40.7
2022-08-28T15:54:04.073Z,40.5
2022-08-28T15:55:14.446Z,41.5
2022-08-28T15:57:34.432Z,41.6
2022-08-28T15:58:44.535Z,41.1
2022-08-28T15:59:54.654Z,41.5
2022-08-28T16:01:04.778Z,41.9
2022-08-28T16:02:14.163Z,42.5
2022-08-28T16:03:24.019Z,41.5
2022-08-28T16:04:34.140Z,43.7
2022-08-28T16:05:44.259Z,43.1
2022-08-28T16:06:54.635Z,42.7
2022-08-28T16:08:04.495Z,44.8
2022-08-28T16:09:14.618Z,47.2
2022-08-28T16:10:24.740Z,46.6
2022-08-28T16:11:34.855Z,44.4
2022-08-28T16:12:44.963Z,44.1
2022-08-28T16:13:55.348Z,42.8
2022-08-28T16:15:05.203Z,42.9
2022-08-28T16:16:15.587Z,42.7
2022-08-28T16:17:24.454Z,41.9
2022-08-28T16:18:34.832Z,41.8
2022-08-28T16:19:44.949Z,44.2
2022-08-28T16:20:54.809Z,46.8
2022-08-28T16:22:04.924Z,47.6
2022-08-28T16:23:15.057Z,48.8
2022-08-28T16:25:35.536Z,50.2
2022-08-28T16:26:45.405Z,50.4
2022-08-28T16:27:55.510Z,51
2022-08-28T16:29:05.640Z,50.3
2022-08-28T16:30:16.004Z,50.9
2022-08-28T16:31:25.866Z,49.9
2022-08-28T16:32:35.014Z,48.6
2022-08-28T16:33:45.116Z,47.1
2022-08-28T16:34:55.245Z,47.4
2022-08-28T16:36:05.350Z,46
2022-08-28T16:37:15.470Z,46.5
2022-08-28T16:39:35.960Z,47.8
2022-08-28T16:40:46.086Z,48.3
2022-08-28T16:41:55.944Z,47.7
2022-08-28T16:43:06.067Z,48.6
2022-08-28T16:44:16.176Z,48.9
2022-08-28T16:45:26.306Z,48.8
2022-08-28T16:46:36.415Z,49.1
2022-08-28T16:47:45.550Z,49.5
2022-08-28T16:48:55.661Z,48.8
2022-08-28T16:50:05.781Z,51.3
2022-08-28T16:51:16.151Z,51.9
2022-08-28T16:52:26.026Z,54.5
2022-08-28T16:53:36.394Z,54.6
2022-08-28T16:54:46.246Z,54.2
2022-08-28T16:55:56.000Z,56.4
2022-08-28T16:57:06.740Z,58.1